F/V Cote D'ambre — FPEY — position and weather

sailwx.info

Track history (hours):
 
Tides and Currents Weather Stations Pressure Air Temp Water Temp Dewpoint Dewpoint Depression Visibility Wind Speed Wind Dir Waves Ship Positions

F/V Cote D'ambre

Last reported at 2014-Sep-22 01:33 UTC. Time now 2014-Sep-22 04:14 UTC.
Position N 47°34' W 003°22'.

Length 16 m; draft 4 m.

Type: Fishing. MMSI: 227128800.

Date/timePositionNaut miles runAvg speedWind from/ knotsBaromVisibWave heightAir tempDewpointWater temp
2014-Sep-22 01:33N 47°34' W 003°22'8 8.3
2014-Sep-22 00:33N 47°42' W 003°22'2 0.0
2014-Sep-20 02:32N 47°44' W 003°22'0 0.0
2014-Sep-20 01:31N 47°44' W 003°22'0 0.0
2014-Sep-20 00:31N 47°44' W 003°22'2 1.7
2014-Sep-19 23:34N 47°42' W 003°22'9 8.6
2014-Sep-19 22:34N 47°34' W 003°22'32 6.4
2014-Sep-19 17:32N 47°01' W 003°24'4 4.1
2014-Sep-19 16:33N 46°57' W 003°25'21 1.6
2014-Sep-19 03:16N 47°19' W 003°24'8 8.3
2014-Sep-19 02:18N 47°27' W 003°24'7 8.8
2014-Sep-19 01:32N 47°33' W 003°23'8 8.5
2014-Sep-19 00:33N 47°42' W 003°22'2 2.1
2014-Sep-18 23:33N 47°44' W 003°22'9 8.8
2014-Sep-18 22:33N 47°35' W 003°22'2 0.1
2014-Sep-17 20:17N 47°32' W 003°23'6 7.9
2014-Sep-17 19:34N 47°38' W 003°22'6 5.5
2014-Sep-17 18:33N 47°44' W 003°22'0 0.1
2014-Sep-17 17:32N 47°44' W 003°22'0 0.0
2014-Sep-17 16:32N 47°44' W 003°22'0 0.1
2014-Sep-17 15:33N 47°44' W 003°22'0 0.0
2014-Sep-17 14:33N 47°44' W 003°22'1 0.6
2014-Sep-17 13:33N 47°43' W 003°22'7 7.2
2014-Sep-17 12:33N 47°36' W 003°25'1 0.3
2014-Sep-17 07:22N 47°35' W 003°23'7 8.1
2014-Sep-17 06:33N 47°42' W 003°22'2 0.2
2014-Sep-16 17:19N 47°44' W 003°22'0 0.0
2014-Sep-16 16:34N 47°44' W 003°22'8 8.0
2014-Sep-16 15:33N 47°36' W 003°20'11 1.8
2014-Sep-16 09:33N 47°26' W 003°13'2 0.9
2014-Sep-16 07:19N 47°26' W 003°10'15 0.8
2014-Sep-15 12:33N 47°39' W 003°22'5 4.5
2014-Sep-15 11:31N 47°44' W 003°22'0 0.0
2014-Sep-15 10:31N 47°44' W 003°22'0 0.0
2014-Sep-15 09:31N 47°44' W 003°22'  
2014-Sep-13 04:18N 47°44' W 003°22'0 0.1
2014-Sep-13 03:31N 47°44' W 003°22'0 0.0
2014-Sep-13 02:31N 47°44' W 003°22'0 0.1
2014-Sep-13 01:32N 47°44' W 003°22'0 0.0
2014-Sep-13 00:32N 47°44' W 003°22'4 4.6
2014-Sep-12 23:34N 47°39' W 003°22'10 8.4
2014-Sep-12 22:25N 47°30' W 003°25'4 0.2
2014-Sep-12 02:13N 47°33' W 003°23'6 8.4
2014-Sep-12 01:34N 47°39' W 003°22'  
Track history (hours):
 
Tides and Currents Weather Stations Pressure Air Temp Water Temp Dewpoint Dewpoint Depression Visibility Wind Speed Wind Dir Waves Ship Positions

F/V Cote D'ambre

Last reported at 2014-Sep-22 01:33 UTC. Time now 2014-Sep-22 04:14 UTC.
Position N 47°34' W 003°22'.

Length 16 m; draft 4 m.

Type: Fishing. MMSI: 227128800.

Date/timePositionNaut miles runAvg speedWind from/ knotsBaromVisibWave heightAir tempDewpointWater temp
2014-Sep-22 01:33N 47°34' W 003°22'8 8.3
2014-Sep-22 00:33N 47°42' W 003°22'2 0.0
2014-Sep-20 02:32N 47°44' W 003°22'0 0.0
2014-Sep-20 01:31N 47°44' W 003°22'0 0.0
2014-Sep-20 00:31N 47°44' W 003°22'2 1.7
2014-Sep-19 23:34N 47°42' W 003°22'9 8.6
2014-Sep-19 22:34N 47°34' W 003°22'32 6.4
2014-Sep-19 17:32N 47°01' W 003°24'4 4.1
2014-Sep-19 16:33N 46°57' W 003°25'21 1.6
2014-Sep-19 03:16N 47°19' W 003°24'8 8.3
2014-Sep-19 02:18N 47°27' W 003°24'7 8.8
2014-Sep-19 01:32N 47°33' W 003°23'8 8.5
2014-Sep-19 00:33N 47°42' W 003°22'2 2.1
2014-Sep-18 23:33N 47°44' W 003°22'9 8.8
2014-Sep-18 22:33N 47°35' W 003°22'2 0.1
2014-Sep-17 20:17N 47°32' W 003°23'6 7.9
2014-Sep-17 19:34N 47°38' W 003°22'6 5.5
2014-Sep-17 18:33N 47°44' W 003°22'0 0.1
2014-Sep-17 17:32N 47°44' W 003°22'0 0.0
2014-Sep-17 16:32N 47°44' W 003°22'0 0.1
2014-Sep-17 15:33N 47°44' W 003°22'0 0.0
2014-Sep-17 14:33N 47°44' W 003°22'1 0.6
2014-Sep-17 13:33N 47°43' W 003°22'7 7.2
2014-Sep-17 12:33N 47°36' W 003°25'1 0.3
2014-Sep-17 07:22N 47°35' W 003°23'7 8.1
2014-Sep-17 06:33N 47°42' W 003°22'2 0.2
2014-Sep-16 17:19N 47°44' W 003°22'0 0.0
2014-Sep-16 16:34N 47°44' W 003°22'8 8.0
2014-Sep-16 15:33N 47°36' W 003°20'11 1.8
2014-Sep-16 09:33N 47°26' W 003°13'2 0.9
2014-Sep-16 07:19N 47°26' W 003°10'15 0.8
2014-Sep-15 12:33N 47°39' W 003°22'5 4.5
2014-Sep-15 11:31N 47°44' W 003°22'0 0.0
2014-Sep-15 10:31N 47°44' W 003°22'0 0.0
2014-Sep-15 09:31N 47°44' W 003°22'  
2014-Sep-13 04:18N 47°44' W 003°22'0 0.1
2014-Sep-13 03:31N 47°44' W 003°22'0 0.0
2014-Sep-13 02:31N 47°44' W 003°22'0 0.1
2014-Sep-13 01:32N 47°44' W 003°22'0 0.0
2014-Sep-13 00:32N 47°44' W 003°22'4 4.6
2014-Sep-12 23:34N 47°39' W 003°22'10 8.4
2014-Sep-12 22:25N 47°30' W 003°25'4 0.2
2014-Sep-12 02:13N 47°33' W 003°23'6 8.4
2014-Sep-12 01:34N 47°39' W 003°22'  

Dump ship's entire track history